Time;durP1;ratioP1;P1;durP2;ratioP2;P2;SDS_P1;SDS_P2;PMS_P1;PMS_P2;Temp;Humidity;BMP_temperature;BMP_pressure;BME280_temperature;BME280_humidity;BME280_pressure;Samples;Min_cycle;Max_cycle;Signal;HPM_P1;HPM_P2
2023/04/12 00:01:29;;;;;;;6.60;1.77;;;7.50;99.90;;;;;;5069440;28;20032;-86
2023/04/12 00:03:54;;;;;;;7.55;1.70;;;7.50;99.90;;;;;;5069718;28;20048;-86
2023/04/12 00:06:26;;;;;;;6.68;2.10;;;7.50;99.90;;;;;;5067044;28;20044;-86
2023/04/12 00:08:52;;;;;;;4.72;1.55;;;7.50;99.90;;;;;;5070142;28;20055;-86
2023/04/12 00:11:17;;;;;;;6.28;1.52;;;7.50;99.90;;;;;;5066070;28;20037;-86
2023/04/12 00:13:43;;;;;;;7.20;1.70;;;7.50;99.90;;;;;;5060560;28;20043;-86
2023/04/12 00:16:09;;;;;;;4.20;1.58;;;7.50;99.90;;;;;;5068519;28;20068;-87
2023/04/12 00:18:34;;;;;;;5.30;1.33;;;7.50;99.90;;;;;;5072812;28;20032;-86
2023/04/12 00:21:00;;;;;;;7.03;1.73;;;7.50;99.90;;;;;;5070634;28;20036;-87
2023/04/12 00:23:25;;;;;;;5.22;1.77;;;7.50;99.90;;;;;;5064927;28;20450;-87
2023/04/12 00:25:51;;;;;;;7.82;1.75;;;7.50;99.90;;;;;;5054714;28;20669;-87
2023/04/12 00:28:16;;;;;;;6.38;2.00;;;7.50;99.90;;;;;;5064169;28;20041;-86
2023/04/12 00:30:42;;;;;;;9.48;2.15;;;7.50;99.90;;;;;;5060365;28;20611;-86
2023/04/12 00:33:08;;;;;;;4.78;1.90;;;7.80;99.90;;;;;;5062029;28;20036;-86
2023/04/12 00:35:34;;;;;;;6.72;1.73;;;7.60;99.90;;;;;;5063747;28;20025;-86
2023/04/12 00:38:01;;;;;;;6.45;1.95;;;7.60;99.90;;;;;;5069838;28;20090;-86
2023/04/12 00:40:27;;;;;;;8.13;1.60;;;7.60;99.90;;;;;;5057375;28;20036;-86
2023/04/12 00:42:52;;;;;;;6.82;1.92;;;7.60;99.90;;;;;;5065491;28;20033;-86
2023/04/12 00:45:20;;;;;;;6.65;1.83;;;7.60;99.90;;;;;;5070683;28;20067;-87
2023/04/12 00:47:45;;;;;;;5.45;1.80;;;7.70;99.90;;;;;;5053463;28;20044;-86
2023/04/12 00:50:11;;;;;;;8.90;2.08;;;7.70;99.90;;;;;;5062423;28;20507;-87
2023/04/12 00:52:38;;;;;;;5.75;1.67;;;7.70;99.90;;;;;;5065936;28;20101;-86
2023/04/12 00:55:06;;;;;;;5.88;2.33;;;7.70;99.90;;;;;;5066489;28;20411;-86
2023/04/12 00:57:37;;;;;;;4.72;1.88;;;7.70;99.90;;;;;;5053188;28;20036;-86
2023/04/12 01:00:11;;;;;;;6.15;2.40;;;7.80;99.90;;;;;;5067510;28;20037;-86
2023/04/12 01:02:41;;;;;;;11.35;2.30;;;7.80;99.90;;;;;;5056767;28;20055;-86
2023/04/12 01:05:07;;;;;;;4.72;1.80;;;7.90;99.90;;;;;;5069149;28;20102;-86
2023/04/12 01:08:18;;;;;;;8.40;1.98;;;7.90;99.90;;;;;;5067863;28;20533;-85
2023/04/12 01:11:17;;;;;;;10.00;2.03;;;7.90;99.90;;;;;;5065615;28;20154;-86
2023/04/12 01:14:06;;;;;;;8.60;2.10;;;7.90;99.90;;;;;;5063904;28;20044;-86
2023/04/12 01:16:43;;;;;;;6.57;2.00;;;7.90;99.90;;;;;;5062443;28;20496;-85
2023/04/12 01:19:56;;;;;;;6.03;2.10;;;7.90;99.90;;;;;;5068832;28;20067;-87
2023/04/12 01:22:28;;;;;;;7.43;1.90;;;8.00;99.90;;;;;;5068916;28;20056;-86
2023/04/12 01:25:02;;;;;;;6.10;2.35;;;8.00;99.90;;;;;;5063687;28;20098;-87
2023/04/12 01:27:37;;;;;;;;;;;8.00;99.90;;;;;;5069209;28;20120;-86
2023/04/12 01:30:06;;;;;;;7.35;1.90;;;8.10;99.90;;;;;;5045843;28;20403;-86
2023/04/12 01:32:35;;;;;;;12.25;2.75;;;8.00;99.90;;;;;;5057548;28;20040;-87
2023/04/12 01:35:03;;;;;;;11.85;2.88;;;8.10;99.90;;;;;;5061642;28;20044;-86
2023/04/12 01:37:29;;;;;;;7.75;2.33;;;8.10;99.90;;;;;;5043622;28;20141;-87
2023/04/12 01:39:55;;;;;;;4.35;1.80;;;8.10;99.90;;;;;;5049038;28;20044;-87
2023/04/12 01:42:20;;;;;;;4.95;2.30;;;8.10;99.90;;;;;;5061796;28;20037;-87
2023/04/12 01:44:46;;;;;;;6.78;2.15;;;8.10;99.90;;;;;;5062600;28;20044;-87
2023/04/12 01:47:12;;;;;;;9.50;2.65;;;8.10;99.90;;;;;;5062770;28;20036;-87
2023/04/12 01:50:03;;;;;;;15.32;2.38;;;8.10;99.90;;;;;;5065619;28;20048;-86
2023/04/12 01:52:34;;;;;;;9.50;2.33;;;8.10;99.90;;;;;;5065565;28;20041;-87
2023/04/12 01:55:03;;;;;;;8.02;2.40;;;8.10;99.90;;;;;;5070303;28;20095;-86
2023/04/12 01:57:30;;;;;;;7.88;2.40;;;8.10;99.90;;;;;;5069458;28;20353;-86
2023/04/12 01:59:57;;;;;;;8.50;2.60;;;8.00;99.90;;;;;;5060374;28;20067;-87
2023/04/12 02:02:23;;;;;;;6.30;2.00;;;8.10;99.90;;;;;;5068255;28;20048;-87
2023/04/12 02:04:50;;;;;;;7.30;2.20;;;8.00;99.90;;;;;;5061848;28;20090;-85
2023/04/12 02:07:17;;;;;;;5.45;2.00;;;8.00;99.90;;;;;;5062586;28;20055;-87
2023/04/12 02:09:43;;;;;;;12.45;2.60;;;8.10;99.90;;;;;;5045136;28;20032;-86
2023/04/12 02:12:08;;;;;;;10.45;2.80;;;8.00;99.90;;;;;;5071044;28;20071;-87
2023/04/12 02:14:34;;;;;;;7.22;2.50;;;8.00;99.90;;;;;;5065319;28;20036;-87
2023/04/12 02:17:03;;;;;;;10.00;2.67;;;8.00;99.90;;;;;;5074807;28;20047;-87
2023/04/12 02:19:29;;;;;;;6.63;2.33;;;8.00;99.90;;;;;;5072425;28;20033;-86
2023/04/12 02:21:55;;;;;;;8.50;2.63;;;8.00;99.90;;;;;;5047633;28;20094;-87
2023/04/12 02:24:20;;;;;;;5.63;2.95;;;8.00;99.90;;;;;;5068173;28;20048;-87
2023/04/12 02:26:48;;;;;;;9.57;2.10;;;8.00;99.90;;;;;;5046644;28;20038;-87
2023/04/12 02:29:14;;;;;;;9.52;2.03;;;8.00;99.90;;;;;;5044612;28;20045;-87
2023/04/12 02:31:40;;;;;;;3.10;1.58;;;8.30;99.90;;;;;;5064809;28;20422;-87
2023/04/12 02:34:06;;;;;;;7.55;2.05;;;8.80;99.90;;;;;;5070222;28;20051;-87
2023/04/12 02:36:31;;;;;;;4.75;1.98;;;8.80;99.90;;;;;;5055582;28;20032;-87
2023/04/12 02:38:57;;;;;;;6.18;2.10;;;8.00;99.90;;;;;;5065980;28;20412;-86
2023/04/12 02:41:23;;;;;;;7.18;1.92;;;8.00;99.90;;;;;;5062242;28;20120;-86
2023/04/12 02:43:49;;;;;;;7.35;1.95;;;8.00;99.90;;;;;;5042413;28;20041;-87
2023/04/12 02:46:21;;;;;;;8.55;1.98;;;8.00;99.90;;;;;;5047480;28;20090;-87
2023/04/12 02:48:47;;;;;;;5.57;1.92;;;8.00;99.90;;;;;;5059064;28;20036;-88
2023/04/12 02:51:13;;;;;;;8.45;2.38;;;8.00;99.90;;;;;;5043745;28;20517;-88
2023/04/12 02:53:39;;;;;;;9.18;2.10;;;8.00;99.90;;;;;;5064118;28;20170;-88
2023/04/12 02:56:05;;;;;;;5.63;1.80;;;7.90;99.90;;;;;;5066955;28;20085;-87
2023/04/12 02:58:32;;;;;;;5.20;1.98;;;7.90;99.90;;;;;;5062629;28;20051;-88
2023/04/12 03:00:59;;;;;;;4.20;1.70;;;8.40;99.90;;;;;;5070918;28;20368;-87
2023/04/12 03:03:25;;;;;;;5.70;1.75;;;7.90;99.90;;;;;;5063864;28;20044;-87
2023/04/12 03:05:51;;;;;;;5.20;2.05;;;8.30;99.90;;;;;;5042086;28;20045;-87
2023/04/12 03:08:17;;;;;;;4.28;2.00;;;7.90;99.90;;;;;;5062729;28;20463;-87
2023/04/12 03:10:43;;;;;;;7.07;1.75;;;7.90;99.90;;;;;;5047904;28;20125;-87
2023/04/12 03:13:09;;;;;;;6.88;1.75;;;8.00;99.90;;;;;;5046257;28;20047;-87
2023/04/12 03:15:35;;;;;;;3.85;1.48;;;7.90;99.90;;;;;;5072407;28;20127;-87
2023/04/12 03:18:01;;;;;;;7.60;1.60;;;7.90;99.90;;;;;;5055116;28;20454;-87
2023/04/12 03:20:29;;;;;;;4.78;1.77;;;7.90;99.90;;;;;;5052450;28;20045;-88
2023/04/12 03:22:55;;;;;;;3.25;1.38;;;7.90;99.90;;;;;;5045549;28;20049;-86
2023/04/12 03:25:21;;;;;;;5.53;1.83;;;7.90;99.90;;;;;;5057513;28;20037;-85
2023/04/12 03:27:46;;;;;;;7.68;2.17;;;7.90;99.90;;;;;;5068662;28;20041;-86
2023/04/12 03:30:12;;;;;;;6.15;2.33;;;8.00;99.90;;;;;;5048494;28;20037;-86
2023/04/12 03:32:38;;;;;;;6.53;1.70;;;8.00;99.90;;;;;;5054108;28;20044;-85
2023/04/12 03:35:06;;;;;;;10.50;2.88;;;8.00;99.90;;;;;;5071395;28;20044;-86
2023/04/12 03:37:32;;;;;;;8.45;2.05;;;8.00;99.90;;;;;;5062282;28;20449;-87
2023/04/12 03:39:58;;;;;;;4.15;1.80;;;8.00;99.90;;;;;;5064415;28;20124;-87
2023/04/12 03:42:23;;;;;;;6.07;1.70;;;8.00;99.90;;;;;;5062308;28;20070;-86
2023/04/12 03:44:51;;;;;;;4.07;1.50;;;8.00;99.90;;;;;;5070810;28;20043;-87
2023/04/12 03:47:17;;;;;;;6.45;1.60;;;8.00;99.90;;;;;;5060370;28;20435;-88
2023/04/12 03:49:42;;;;;;;4.30;1.50;;;7.70;99.90;;;;;;5067747;28;20052;-88
2023/04/12 03:52:08;;;;;;;2.70;1.42;;;7.90;99.90;;;;;;5069017;28;20036;-87
2023/04/12 03:54:34;;;;;;;5.35;1.60;;;8.00;99.90;;;;;;5071066;28;20046;-88
2023/04/12 03:57:00;;;;;;;6.38;1.83;;;7.90;99.90;;;;;;5070804;28;20071;-87
2023/04/12 03:59:29;;;;;;;4.88;1.88;;;7.90;99.90;;;;;;5060360;28;20040;-89
2023/04/12 04:01:56;;;;;;;6.93;1.50;;;7.90;99.90;;;;;;5035349;28;20111;-88
2023/04/12 04:04:22;;;;;;;3.60;1.73;;;7.70;99.90;;;;;;5052506;28;20073;-87
2023/04/12 04:06:48;;;;;;;10.18;1.80;;;8.30;99.90;;;;;;5038611;28;20044;-87
2023/04/12 04:09:14;;;;;;;4.43;1.70;;;7.80;99.90;;;;;;5036788;28;20041;-87
2023/04/12 04:11:40;;;;;;;5.85;1.77;;;7.80;99.90;;;;;;5051249;28;20047;-88
2023/04/12 04:14:07;;;;;;;5.43;2.05;;;8.20;99.90;;;;;;5048333;28;20033;-87
2023/04/12 04:16:38;;;;;;;6.68;1.75;;;8.50;99.90;;;;;;5048921;28;20127;-88
2023/04/12 04:19:04;;;;;;;7.22;2.25;;;7.70;99.90;;;;;;5068364;28;20040;-88
2023/04/12 04:21:31;;;;;;;3.60;1.67;;;7.60;99.90;;;;;;5043123;28;20127;-86
2023/04/12 04:24:00;;;;;;;5.93;1.80;;;8.40;99.90;;;;;;5054271;28;20531;-88
2023/04/12 04:26:32;;;;;;;5.78;2.00;;;7.80;99.90;;;;;;5069878;28;20040;-87
2023/04/12 04:29:02;;;;;;;5.72;2.22;;;8.60;99.90;;;;;;5059373;28;20075;-87
2023/04/12 04:31:35;;;;;;;6.50;2.40;;;8.20;99.90;;;;;;5063755;28;20029;-86
2023/04/12 04:34:02;;;;;;;4.55;1.70;;;8.10;99.90;;;;;;5068979;28;20089;-88
2023/04/12 04:36:28;;;;;;;5.85;1.98;;;7.70;99.90;;;;;;5035537;28;20052;-88
2023/04/12 04:38:56;;;;;;;4.15;1.90;;;7.70;99.90;;;;;;5050598;28;20055;-87
2023/04/12 04:41:23;;;;;;;4.63;2.00;;;7.70;99.90;;;;;;5037380;28;20405;-86
2023/04/12 04:43:49;;;;;;;5.00;2.33;;;7.70;99.90;;;;;;5050668;28;20080;-87
2023/04/12 04:46:15;;;;;;;4.55;2.03;;;7.60;99.90;;;;;;5067401;28;20518;-87
2023/04/12 04:48:41;;;;;;;6.68;2.60;;;7.70;99.90;;;;;;5053804;28;20412;-88
2023/04/12 04:51:07;;;;;;;4.72;2.15;;;7.60;99.90;;;;;;5058076;28;20033;-88
2023/04/12 04:53:33;;;;;;;5.68;2.05;;;8.40;99.90;;;;;;5063014;28;20029;-89
2023/04/12 04:55:58;;;;;;;7.30;2.55;;;7.50;99.90;;;;;;5042982;28;20559;-87
2023/04/12 04:58:25;;;;;;;7.53;2.55;;;7.60;99.90;;;;;;5062940;28;20083;-87
2023/04/12 05:00:54;;;;;;;4.70;2.00;;;7.40;99.90;;;;;;5060090;28;20037;-88
2023/04/12 05:03:20;;;;;;;6.70;2.70;;;7.30;99.90;;;;;;5055700;28;20124;-87
2023/04/12 05:05:50;;;;;;;7.32;2.15;;;7.30;99.90;;;;;;5059734;28;20123;-88
2023/04/12 05:08:16;;;;;;;7.40;2.28;;;7.50;99.90;;;;;;5065231;28;20145;-87
2023/04/12 05:10:43;;;;;;;6.18;2.55;;;7.50;99.90;;;;;;5042917;28;20127;-87
2023/04/12 05:13:08;;;;;;;8.18;2.47;;;7.50;99.90;;;;;;5063988;28;20048;-87
2023/04/12 05:15:34;;;;;;;3.55;2.20;;;7.50;99.90;;;;;;5053517;28;20040;-87
2023/04/12 05:18:00;;;;;;;5.53;2.33;;;7.50;99.90;;;;;;5059027;28;20076;-86
2023/04/12 05:20:26;;;;;;;7.18;2.30;;;7.40;99.90;;;;;;5049471;28;20047;-86
2023/04/12 05:22:51;;;;;;;5.18;2.40;;;7.50;99.90;;;;;;5062229;28;20473;-86
2023/04/12 05:25:19;;;;;;;9.18;3.47;;;7.40;99.90;;;;;;5058260;28;20045;-87
2023/04/12 05:27:46;;;;;;;6.75;2.10;;;7.40;99.90;;;;;;5050954;28;20448;-86
2023/04/12 05:30:12;;;;;;;6.03;2.50;;;7.40;99.90;;;;;;5055951;28;20106;-86
2023/04/12 05:32:37;;;;;;;7.47;2.67;;;7.40;99.90;;;;;;5061289;28;20036;-86
2023/04/12 05:35:03;;;;;;;7.97;2.53;;;7.40;99.90;;;;;;5045269;28;20492;-86
2023/04/12 05:37:29;;;;;;;9.60;2.60;;;7.40;99.90;;;;;;5064610;28;20507;-86
2023/04/12 05:39:54;;;;;;;8.02;2.88;;;7.20;99.90;;;;;;5063332;28;20492;-84
2023/04/12 05:42:20;;;;;;;8.82;3.10;;;7.40;99.90;;;;;;5062407;28;20087;-86
2023/04/12 05:44:47;;;;;;;5.80;3.28;;;7.40;99.90;;;;;;5051511;28;20082;-86
2023/04/12 05:47:13;;;;;;;4.85;2.42;;;7.40;99.90;;;;;;5054547;28;20136;-87
2023/04/12 05:49:38;;;;;;;6.75;2.58;;;7.40;99.90;;;;;;5069603;28;20123;-86
2023/04/12 05:52:05;;;;;;;5.45;2.55;;;7.40;99.90;;;;;;5059702;28;20437;-86
2023/04/12 05:54:30;;;;;;;5.70;2.75;;;7.40;99.90;;;;;;5059774;28;20048;-86
2023/04/12 05:56:56;;;;;;;5.75;3.03;;;7.40;99.90;;;;;;5052633;28;20045;-85
2023/04/12 05:59:21;;;;;;;7.07;2.88;;;7.40;99.90;;;;;;5062970;28;20097;-84
2023/04/12 06:01:47;;;;;;;6.70;2.90;;;7.40;99.90;;;;;;5066154;28;20611;-84
2023/04/12 06:04:13;;;;;;;8.05;2.92;;;7.40;99.90;;;;;;5070888;28;20063;-85
2023/04/12 06:06:39;;;;;;;7.93;3.13;;;7.40;99.90;;;;;;5073760;28;20076;-85
2023/04/12 06:09:05;;;;;;;7.97;3.13;;;7.40;99.90;;;;;;5060957;28;20072;-84
2023/04/12 06:11:32;;;;;;;5.82;2.90;;;7.40;99.90;;;;;;5063667;28;20090;-85
2023/04/12 06:13:59;;;;;;;5.95;2.92;;;7.40;99.90;;;;;;5070570;28;20080;-85
2023/04/12 06:16:25;;;;;;;4.03;2.45;;;7.40;99.90;;;;;;5067541;28;20056;-85
2023/04/12 06:18:50;;;;;;;6.38;2.35;;;7.40;99.90;;;;;;5068738;28;20040;-85
2023/04/12 06:21:17;;;;;;;6.32;2.30;;;7.40;99.90;;;;;;5069827;28;20111;-85
2023/04/12 06:23:42;;;;;;;6.60;2.72;;;7.40;99.90;;;;;;5064449;28;20053;-84
2023/04/12 06:26:08;;;;;;;5.88;2.70;;;7.40;99.90;;;;;;5064152;28;20496;-84
2023/04/12 06:28:34;;;;;;;5.93;2.70;;;7.40;99.90;;;;;;5055122;28;20416;-84
2023/04/12 06:31:00;;;;;;;4.47;2.40;;;7.40;99.90;;;;;;5074277;28;20080;-84
2023/04/12 06:33:26;;;;;;;4.20;2.45;;;7.40;99.90;;;;;;5051403;28;20053;-83
2023/04/12 06:35:51;;;;;;;5.28;2.63;;;7.40;99.90;;;;;;5066774;28;20499;-85
2023/04/12 06:38:17;;;;;;;6.32;2.75;;;7.40;99.90;;;;;;5067479;28;20115;-85
2023/04/12 06:40:43;;;;;;;5.35;2.28;;;7.40;99.90;;;;;;5066763;28;20036;-85
2023/04/12 06:43:09;;;;;;;5.97;2.78;;;7.40;99.90;;;;;;5053973;28;20112;-85
2023/04/12 06:45:34;;;;;;;4.40;2.63;;;7.30;99.90;;;;;;5054566;28;20077;-86
2023/04/12 06:48:00;;;;;;;5.50;2.45;;;7.40;99.90;;;;;;5059399;28;20040;-84
2023/04/12 06:50:25;;;;;;;5.63;2.60;;;7.40;99.90;;;;;;5055475;28;20158;-84
2023/04/12 06:52:51;;;;;;;5.55;2.63;;;7.40;99.90;;;;;;5057871;28;20051;-85
2023/04/12 06:55:17;;;;;;;6.32;2.30;;;7.40;99.90;;;;;;5055080;28;20087;-85
2023/04/12 06:57:43;;;;;;;7.40;2.58;;;7.40;99.90;;;;;;5056210;28;20045;-85
2023/04/12 07:00:10;;;;;;;5.55;2.35;;;7.40;99.90;;;;;;5052187;28;20508;-85
2023/04/12 07:02:35;;;;;;;6.53;2.42;;;7.40;99.90;;;;;;5052598;28;20091;-84
2023/04/12 07:05:01;;;;;;;5.97;2.72;;;7.50;99.90;;;;;;5055369;28;20045;-85
2023/04/12 07:07:26;;;;;;;5.18;2.65;;;7.40;99.90;;;;;;5060662;28;20040;-85
2023/04/12 07:09:52;;;;;;;4.45;2.63;;;7.40;99.90;;;;;;5060440;28;20041;-85
2023/04/12 07:12:18;;;;;;;6.53;2.60;;;7.40;99.90;;;;;;5056073;28;20032;-85
2023/04/12 07:14:43;;;;;;;8.02;2.67;;;7.40;99.90;;;;;;5056944;28;20052;-85
2023/04/12 07:17:09;;;;;;;5.60;2.83;;;7.50;99.90;;;;;;5051895;28;20041;-84
2023/04/12 07:19:35;;;;;;;5.53;2.65;;;7.50;99.90;;;;;;5060159;28;20142;-84
2023/04/12 07:22:01;;;;;;;4.50;2.90;;;7.50;99.90;;;;;;5058995;28;20568;-85
2023/04/12 07:24:26;;;;;;;4.55;2.38;;;7.50;99.90;;;;;;5056736;28;20088;-85
2023/04/12 07:26:55;;;;;;;3.92;2.40;;;7.50;99.90;;;;;;5058176;28;20102;-84
2023/04/12 07:29:21;;;;;;;3.55;2.50;;;7.50;99.90;;;;;;5065732;28;20087;-85
2023/04/12 07:31:47;;;;;;;5.00;2.50;;;7.50;99.90;;;;;;5067699;28;20037;-84
2023/04/12 07:34:12;;;;;;;5.88;2.70;;;7.50;99.90;;;;;;5069074;28;20051;-84
2023/04/12 07:36:38;;;;;;;7.53;2.65;;;7.50;99.90;;;;;;5071073;28;20036;-85
2023/04/12 07:39:04;;;;;;;4.70;2.72;;;7.50;99.90;;;;;;5068347;28;20045;-85
2023/04/12 07:41:29;;;;;;;5.50;3.08;;;7.50;99.90;;;;;;5064600;28;20044;-84
2023/04/12 07:43:55;;;;;;;4.20;2.75;;;7.60;99.90;;;;;;5070679;28;20037;-84
2023/04/12 07:46:21;;;;;;;7.85;2.97;;;7.60;99.90;;;;;;5065400;28;20036;-84
2023/04/12 07:48:46;;;;;;;5.00;2.42;;;7.60;99.90;;;;;;5057423;28;20044;-84
2023/04/12 07:51:12;;;;;;;5.60;2.75;;;7.60;99.90;;;;;;5066615;28;20041;-85
2023/04/12 07:53:39;;;;;;;6.10;3.05;;;7.60;99.90;;;;;;5067904;28;20045;-84
2023/04/12 07:56:05;;;;;;;4.68;2.83;;;7.70;99.90;;;;;;5066034;28;20195;-85
2023/04/12 07:58:32;;;;;;;4.93;2.88;;;7.70;99.90;;;;;;5064464;28;20040;-85
2023/04/12 08:00:58;;;;;;;3.55;2.80;;;7.70;99.90;;;;;;5071554;28;20036;-84
2023/04/12 08:03:23;;;;;;;6.80;3.25;;;7.70;99.90;;;;;;5066823;28;20039;-85
2023/04/12 08:05:52;;;;;;;9.98;3.55;;;7.70;99.90;;;;;;5064418;28;20059;-84
2023/04/12 08:08:21;;;;;;;6.78;2.72;;;7.70;99.90;;;;;;5068271;28;20044;-85
2023/04/12 08:10:48;;;;;;;5.47;3.20;;;7.70;99.90;;;;;;5066786;28;20103;-85
2023/04/12 08:13:13;;;;;;;4.15;3.17;;;7.80;99.90;;;;;;5054218;28;20097;-86
2023/04/12 08:15:39;;;;;;;3.75;3.10;;;7.90;99.90;;;;;;5069017;28;20036;-85
2023/04/12 08:18:05;;;;;;;5.18;2.97;;;7.90;99.90;;;;;;5060761;28;20041;-85
2023/04/12 08:20:31;;;;;;;5.13;2.97;;;7.90;99.90;;;;;;5064502;28;20029;-85
2023/04/12 08:22:57;;;;;;;4.60;3.15;;;8.00;99.90;;;;;;5049442;28;20047;-86
2023/04/12 08:25:23;;;;;;;5.15;3.13;;;8.00;99.90;;;;;;5056249;28;20040;-86
2023/04/12 08:27:50;;;;;;;4.43;3.10;;;8.00;99.90;;;;;;5050833;28;20147;-85
2023/04/12 08:30:16;;;;;;;3.70;3.05;;;8.00;99.90;;;;;;5045977;28;20045;-85
2023/04/12 08:32:42;;;;;;;4.22;3.05;;;8.10;99.90;;;;;;5048289;28;20036;-86
2023/04/12 08:35:08;;;;;;;3.58;2.92;;;8.10;99.90;;;;;;5067268;28;20041;-86
2023/04/12 08:37:34;;;;;;;4.32;2.78;;;8.10;99.90;;;;;;5065907;28;20037;-85
2023/04/12 08:40:03;;;;;;;4.38;3.33;;;8.20;99.90;;;;;;5065374;28;20036;-86
2023/04/12 08:42:30;;;;;;;4.13;3.47;;;8.50;99.90;;;;;;5041046;28;20037;-86
2023/04/12 08:44:56;;;;;;;4.63;3.63;;;8.60;99.90;;;;;;5062728;28;20048;-86
2023/04/12 08:47:22;;;;;;;5.32;4.00;;;8.30;99.90;;;;;;5051801;28;20443;-85
2023/04/12 08:49:48;;;;;;;5.00;3.60;;;8.20;99.90;;;;;;5047056;28;20055;-85
2023/04/12 08:52:14;;;;;;;4.63;3.90;;;8.60;99.90;;;;;;5035306;28;20512;-85
2023/04/12 08:54:40;;;;;;;4.72;4.18;;;8.30;99.90;;;;;;5057286;28;20107;-85
2023/04/12 08:57:07;;;;;;;4.82;4.00;;;8.30;99.90;;;;;;5057419;28;20081;-84
2023/04/12 08:59:37;;;;;;;5.13;3.80;;;8.30;99.90;;;;;;5053145;28;20044;-85
2023/04/12 09:02:03;;;;;;;4.35;3.85;;;8.30;99.90;;;;;;5060075;28;20404;-85
2023/04/12 09:04:29;;;;;;;4.15;3.80;;;8.30;99.90;;;;;;5057903;28;20048;-86
2023/04/12 09:06:55;;;;;;;4.60;4.10;;;8.60;99.90;;;;;;5044613;28;20055;-86
2023/04/12 09:09:41;;;;;;;6.22;4.40;;;8.50;99.90;;;;;;5070413;28;20072;-86
2023/04/12 09:12:07;;;;;;;5.05;4.40;;;8.60;99.90;;;;;;5036660;28;20041;-86
2023/04/12 09:14:32;;;;;;;6.57;4.78;;;8.60;99.90;;;;;;5064265;28;20039;-86
2023/04/12 09:16:58;;;;;;;6.38;5.03;;;8.60;99.90;;;;;;5040119;28;20040;-86
2023/04/12 09:19:35;;;;;;;5.43;4.93;;;9.00;99.90;;;;;;5046759;28;20053;-87
2023/04/12 09:22:01;;;;;;;6.32;4.80;;;8.90;99.90;;;;;;5060203;28;20412;-85
2023/04/12 09:24:28;;;;;;;5.20;4.53;;;8.80;99.90;;;;;;5046815;28;20040;-86
2023/04/12 09:27:05;;;;;;;5.47;4.70;;;8.80;99.90;;;;;;5043335;28;20071;-86
2023/04/12 09:29:32;;;;;;;10.13;5.35;;;8.80;99.90;;;;;;5045147;28;20484;-86
2023/04/12 09:32:06;;;;;;;5.95;4.70;;;8.80;99.90;;;;;;5059011;28;20037;-85
2023/04/12 09:34:33;;;;;;;;;;;8.80;99.90;;;;;;5051349;28;20072;-86
2023/04/12 09:37:10;;;;;;;6.75;5.60;;;8.80;99.90;;;;;;5041951;28;19917;-86
2023/04/12 09:39:36;;;;;;;5.72;5.10;;;8.90;99.90;;;;;;5061504;28;20496;-86
2023/04/12 09:42:10;;;;;;;5.70;5.10;;;9.00;99.90;;;;;;5046966;28;20035;-86
2023/04/12 09:44:36;;;;;;;6.97;5.60;;;9.10;99.90;;;;;;5037234;28;20534;-86
2023/04/12 09:47:03;;;;;;;6.30;5.50;;;9.10;99.90;;;;;;5067041;28;20079;-87
2023/04/12 09:49:40;;;;;;;7.97;6.13;;;9.30;99.90;;;;;;5060697;28;20036;-86
2023/04/12 09:52:07;;;;;;;7.00;6.30;;;9.50;99.90;;;;;;5051331;28;20033;-86
2023/04/12 09:54:38;;;;;;;6.57;5.88;;;9.70;99.90;;;;;;5055975;28;20044;-86
2023/04/12 09:57:10;;;;;;;8.43;6.65;;;9.90;99.90;;;;;;5064077;28;20045;-86
2023/04/12 09:59:40;;;;;;;6.95;6.20;;;10.10;99.90;;;;;;5036634;28;20076;-86
2023/04/12 10:02:17;;;;;;;6.40;5.80;;;10.10;99.90;;;;;;5069959;28;20043;-87
2023/04/12 10:04:43;;;;;;;6.38;5.20;;;10.20;99.90;;;;;;5062336;28;20047;-86
2023/04/12 10:07:09;;;;;;;7.03;5.00;;;10.10;99.90;;;;;;5059635;28;20495;-87
2023/04/12 10:09:39;;;;;;;6.85;4.90;;;10.20;99.90;;;;;;5062746;28;20091;-86
2023/04/12 10:12:06;;;;;;;5.82;5.22;;;10.30;99.90;;;;;;5060491;28;20061;-85
2023/04/12 10:14:31;;;;;;;7.22;5.40;;;10.40;99.90;;;;;;5058967;28;20046;-86
2023/04/12 10:17:00;;;;;;;5.95;4.68;;;10.40;99.90;;;;;;5045438;28;20124;-87
2023/04/12 10:19:28;;;;;;;6.30;4.43;;;10.50;99.90;;;;;;5046052;28;20094;-86
2023/04/12 10:21:55;;;;;;;7.90;4.80;;;10.70;99.90;;;;;;5050133;28;20068;-87
2023/04/12 10:24:25;;;;;;;7.85;4.90;;;11.10;99.90;;;;;;5049517;28;20120;-87
2023/04/12 10:26:54;;;;;;;7.88;4.63;;;11.40;99.90;;;;;;5036664;28;20126;-88
2023/04/12 10:29:27;;;;;;;8.10;4.78;;;11.60;99.90;;;;;;5065804;28;20044;-86
2023/04/12 10:31:58;;;;;;;6.85;4.20;;;11.60;99.90;;;;;;5058990;28;20029;-86
2023/04/12 10:34:27;;;;;;;8.52;4.03;;;11.60;99.90;;;;;;5066890;28;20044;-88
2023/04/12 10:36:55;;;;;;;6.00;3.53;;;11.50;99.90;;;;;;5052636;28;20047;-87
2023/04/12 10:39:43;;;;;;;4.97;3.33;;;11.50;99.90;;;;;;5041899;28;20067;-86
2023/04/12 10:42:26;;;;;;;6.63;3.70;;;11.50;99.90;;;;;;5036227;28;20712;-86
2023/04/12 10:44:54;;;;;;;7.20;3.60;;;11.80;99.90;;;;;;5056048;28;20200;-85
2023/04/12 10:47:47;;;;;;;8.57;3.15;;;12.10;99.90;;;;;;5062544;28;20187;-86
2023/04/12 10:50:18;;;;;;;7.23;2.70;;;12.30;99.90;;;;;;5063533;28;20025;-86
2023/04/12 10:53:17;;;;;;;8.63;2.88;;;12.30;99.90;;;;;;5055451;28;20591;-87
2023/04/12 10:55:43;;;;;;;10.70;3.35;;;12.30;99.90;;;;;;5057346;28;20056;-86
2023/04/12 10:58:10;;;;;;;6.10;3.08;;;12.50;99.90;;;;;;5065533;28;20414;-86
2023/04/12 11:00:54;;;;;;;8.75;3.03;;;12.50;99.90;;;;;;5072626;28;20128;-87
2023/04/12 11:03:20;;;;;;;6.50;2.67;;;12.40;99.90;;;;;;5067513;28;20067;-84
2023/04/12 11:06:05;;;;;;;6.10;2.40;;;12.40;99.90;;;;;;5057662;28;20041;-86
2023/04/12 11:08:31;;;;;;;9.30;2.90;;;12.60;99.90;;;;;;5071841;28;20159;-86
2023/04/12 11:11:16;;;;;;;9.80;2.88;;;12.80;99.90;;;;;;5062685;28;20040;-85
2023/04/12 11:13:42;;;;;;;7.25;2.40;;;12.60;99.90;;;;;;5067224;28;20519;-87
2023/04/12 11:16:11;;;;;;;6.82;2.17;;;12.50;99.90;;;;;;5060074;28;20079;-84
2023/04/12 11:18:37;;;;;;;8.88;2.60;;;12.50;99.90;;;;;;5055100;28;20045;-85
2023/04/12 11:21:03;;;;;;;8.73;2.45;;;12.40;99.90;;;;;;5035569;28;20489;-85
2023/04/12 11:23:30;;;;;;;9.55;2.78;;;12.30;99.90;;;;;;5052310;28;20041;-84
2023/04/12 11:25:56;;;;;;;8.40;2.30;;;12.60;99.90;;;;;;5056529;28;20044;-83
2023/04/12 11:28:22;;;;;;;8.05;2.42;;;12.60;99.90;;;;;;5063976;28;20033;-84
2023/04/12 11:30:52;;;;;;;8.05;2.50;;;12.80;99.90;;;;;;5051756;28;20059;-85
2023/04/12 11:33:50;;;;;;;8.57;2.25;;;12.80;99.90;;;;;;5061310;28;20040;-85
2023/04/12 11:36:16;;;;;;;12.93;2.92;;;12.90;99.90;;;;;;5050717;28;20056;-85
2023/04/12 11:38:44;;;;;;;10.57;2.50;;;13.00;99.90;;;;;;5043663;28;20492;-85
2023/04/12 11:41:10;;;;;;;7.55;2.05;;;13.20;99.90;;;;;;5048705;28;20044;-85
2023/04/12 11:43:37;;;;;;;8.85;2.17;;;13.20;99.90;;;;;;5048333;28;20480;-87
2023/04/12 11:46:03;;;;;;;10.45;2.20;;;13.30;99.90;;;;;;5047751;28;20036;-87
2023/04/12 11:48:29;;;;;;;11.35;2.40;;;13.30;99.90;;;;;;5069112;28;20033;-87
2023/04/12 11:50:58;;;;;;;11.25;2.05;;;13.20;99.90;;;;;;5044980;28;20044;-87
2023/04/12 11:53:28;;;;;;;12.30;2.40;;;13.10;99.90;;;;;;5042453;28;20029;-86
2023/04/12 11:55:56;;;;;;;12.30;2.35;;;13.10;99.90;;;;;;5057757;28;20584;-87
2023/04/12 11:58:23;;;;;;;12.80;2.28;;;12.90;99.90;;;;;;5051012;28;20061;-86
2023/04/12 12:00:49;;;;;;;7.68;1.85;;;12.90;99.90;;;;;;5040700;28;20032;-86
2023/04/12 12:03:15;;;;;;;10.65;2.15;;;12.90;99.90;;;;;;5068593;28;20051;-87
2023/04/12 12:05:41;;;;;;;10.30;2.10;;;13.00;99.90;;;;;;5056409;28;20048;-87
2023/04/12 12:08:08;;;;;;;10.02;2.00;;;13.20;99.90;;;;;;5065627;28;20047;-88
2023/04/12 12:10:38;;;;;;;9.25;2.78;;;13.30;99.90;;;;;;5035910;28;20119;-87
2023/04/12 12:13:11;;;;;;;11.48;2.35;;;13.20;99.90;;;;;;5054740;28;20045;-87
2023/04/12 12:15:37;;;;;;;15.23;2.50;;;13.30;99.90;;;;;;5058884;28;20080;-86
2023/04/12 12:18:06;;;;;;;12.48;2.75;;;13.00;99.90;;;;;;5035263;28;20068;-86
2023/04/12 12:20:37;;;;;;;11.13;2.45;;;12.70;99.90;;;;;;5042891;28;20045;-86
2023/04/12 12:23:03;;;;;;;9.38;2.65;;;12.50;99.90;;;;;;5065917;28;20041;-86
2023/04/12 12:25:28;;;;;;;9.15;2.35;;;12.40;99.90;;;;;;5051452;28;20124;-87
2023/04/12 12:27:56;;;;;;;14.25;2.20;;;12.10;99.90;;;;;;5057249;28;20032;-87
2023/04/12 12:30:22;;;;;;;12.38;2.60;;;12.60;99.90;;;;;;5055002;28;20115;-87
2023/04/12 12:32:51;;;;;;;15.93;3.38;;;12.10;99.90;;;;;;5037017;28;20120;-86
2023/04/12 12:35:18;;;;;;;14.48;2.33;;;12.10;99.90;;;;;;5042560;28;20518;-86
2023/04/12 12:37:49;;;;;;;13.77;2.30;;;12.20;99.90;;;;;;5050934;28;20045;-86
2023/04/12 12:40:15;;;;;;;11.50;2.72;;;12.20;99.90;;;;;;5060371;28;20086;-86
2023/04/12 12:42:53;;;;;;;12.30;2.45;;;12.40;99.90;;;;;;5065092;28;20052;-86
2023/04/12 12:45:20;;;;;;;9.55;2.25;;;12.70;99.90;;;;;;5049412;28;20037;-85
2023/04/12 12:47:49;;;;;;;9.10;2.10;;;12.80;99.90;;;;;;5063593;28;20040;-86
2023/04/12 12:50:16;;;;;;;11.55;2.42;;;12.90;99.90;;;;;;5061798;28;20083;-86
2023/04/12 12:52:44;;;;;;;11.57;2.20;;;13.10;99.90;;;;;;5049564;28;20080;-86
2023/04/12 12:55:10;;;;;;;14.75;2.25;;;13.20;99.90;;;;;;5054241;28;20048;-86
2023/04/12 12:57:35;;;;;;;12.18;2.42;;;13.20;99.90;;;;;;5045427;28;20041;-86